createdAt,value
2023-04-08T00:00:25.110Z,5.17
2023-04-08T00:05:28.215Z,4.83
2023-04-08T00:10:32.655Z,5.00
2023-04-08T00:15:35.847Z,5.30
2023-04-08T00:20:38.940Z,5.70
2023-04-08T00:25:43.797Z,5.13
2023-04-08T00:30:47.116Z,5.27
2023-04-08T00:35:51.082Z,5.40
2023-04-08T00:40:55.718Z,5.93
2023-04-08T00:45:58.811Z,5.73
2023-04-08T00:51:02.217Z,6.00
2023-04-08T00:56:06.869Z,5.60
2023-04-08T01:01:16.043Z,5.70
2023-04-08T01:06:25.035Z,6.03
2023-04-08T01:11:33.411Z,6.23
2023-04-08T01:16:38.987Z,5.57
2023-04-08T01:21:42.523Z,5.73
2023-04-08T01:26:47.259Z,5.50
2023-04-08T01:31:51.433Z,4.73
2023-04-08T01:36:58.352Z,5.57
2023-04-08T01:42:04.015Z,5.87
2023-04-08T01:47:07.718Z,6.03
2023-04-08T01:52:11.231Z,5.80
2023-04-08T01:57:19.027Z,5.93
2023-04-08T02:02:23.436Z,5.30
2023-04-08T02:07:26.640Z,4.73
2023-04-08T02:12:31.485Z,5.03
2023-04-08T02:17:40.204Z,5.80
2023-04-08T02:22:48.935Z,5.97
2023-04-08T02:27:55.790Z,5.73
2023-04-08T02:33:00.218Z,4.77
2023-04-08T02:38:03.541Z,5.80
2023-04-08T02:43:07.968Z,5.63
2023-04-08T02:48:11.723Z,5.87
2023-04-08T02:53:14.840Z,5.33
2023-04-08T02:58:20.346Z,5.47
2023-04-08T03:03:27.801Z,5.10
2023-04-08T03:08:31.106Z,5.67
2023-04-08T03:13:35.648Z,5.10
2023-04-08T03:18:40.043Z,5.43
2023-04-08T03:23:43.099Z,5.13
2023-04-08T03:28:47.750Z,5.33
2023-04-08T03:33:51.227Z,5.53
2023-04-08T03:38:54.300Z,5.87
2023-04-08T03:43:59.750Z,5.77
2023-04-08T03:49:02.808Z,5.23
2023-04-08T03:54:06.176Z,4.63
2023-04-08T03:59:10.670Z,5.80
2023-04-08T04:04:13.910Z,5.50
2023-04-08T04:09:17.530Z,5.70
2023-04-08T04:14:21.998Z,5.60
2023-04-08T04:19:25.095Z,6.07
2023-04-08T04:24:28.157Z,6.30
2023-04-08T04:29:34.040Z,6.60
2023-04-08T04:34:37.131Z,6.27
2023-04-08T04:39:40.540Z,5.57
2023-04-08T04:44:45.034Z,6.73
2023-04-08T04:49:48.359Z,6.70
2023-04-08T04:54:51.581Z,7.07
2023-04-08T04:59:56.042Z,7.30
2023-04-08T05:04:59.187Z,7.10
2023-04-08T05:10:02.653Z,7.10
2023-04-08T05:15:08.388Z,7.57
2023-04-08T05:20:12.090Z,7.73
2023-04-08T05:25:15.211Z,7.80
2023-04-08T05:30:19.990Z,10.03
2023-04-08T05:35:23.303Z,9.87
2023-04-08T05:40:26.910Z,11.37
2023-04-08T05:45:32.439Z,10.03
2023-04-08T05:50:36.653Z,8.83
2023-04-08T05:55:39.714Z,9.67
2023-04-08T06:00:44.229Z,8.93
2023-04-08T06:05:47.298Z,9.30
2023-04-08T06:10:51.169Z,9.80
2023-04-08T06:15:55.763Z,8.93
2023-04-08T06:20:59.660Z,9.70
2023-04-08T06:26:03.133Z,9.57
2023-04-08T06:31:07.638Z,9.03
2023-04-08T06:36:11.302Z,10.17
2023-04-08T06:41:14.440Z,10.37
2023-04-08T06:46:18.907Z,10.33
2023-04-08T06:51:22.013Z,10.67
2023-04-08T06:56:26.257Z,10.43
2023-04-08T07:01:31.174Z,10.70
2023-04-08T07:06:34.300Z,9.87
2023-04-08T07:11:37.372Z,10.10
2023-04-08T07:16:41.922Z,9.93
2023-04-08T07:21:45.038Z,9.87
2023-04-08T07:26:48.126Z,9.77
2023-04-08T07:31:52.827Z,9.73
2023-04-08T07:36:55.961Z,9.60
2023-04-08T07:41:59.020Z,8.80
2023-04-08T07:47:03.528Z,9.60
2023-04-08T07:52:06.784Z,9.03
2023-04-08T07:57:09.836Z,8.67
2023-04-08T08:02:14.460Z,9.20
2023-04-08T08:07:17.598Z,8.90
2023-04-08T08:12:20.890Z,8.80
2023-04-08T08:17:27.754Z,8.37
2023-04-08T08:22:31.470Z,8.27
2023-04-08T08:27:35.000Z,8.00
2023-04-08T08:32:39.507Z,7.73
2023-04-08T08:37:42.892Z,7.70
2023-04-08T08:42:52.033Z,7.93
2023-04-08T08:47:57.649Z,8.00
2023-04-08T08:53:00.783Z,6.97
2023-04-08T08:58:04.963Z,7.27
2023-04-08T09:03:21.374Z,7.37
2023-04-08T09:08:26.252Z,7.43
2023-04-08T09:13:37.569Z,6.63
2023-04-08T09:18:44.722Z,7.33
2023-04-08T09:23:52.193Z,7.67
2023-04-08T09:29:11.432Z,6.97
2023-04-08T09:34:32.353Z,7.23
2023-04-08T09:39:35.732Z,7.90
2023-04-08T09:44:40.547Z,7.03
2023-04-08T09:49:52.393Z,8.10
2023-04-08T09:55:03.895Z,6.13
2023-04-08T10:00:11.982Z,6.00
2023-04-08T10:05:18.516Z,7.53
2023-04-08T10:10:22.096Z,7.07
2023-04-08T10:15:29.018Z,6.97
2023-04-08T10:20:51.652Z,6.87
2023-04-08T10:25:54.769Z,7.47
2023-04-08T10:30:58.697Z,8.53
2023-04-08T10:36:11.428Z,7.43
2023-04-08T10:41:21.596Z,7.03
2023-04-08T10:46:25.489Z,7.03
2023-04-08T10:51:33.866Z,6.90
2023-04-08T10:56:37.904Z,6.90
2023-04-08T11:01:42.075Z,7.27
2023-04-08T11:06:50.730Z,7.87
2023-04-08T11:11:54.844Z,6.93
2023-04-08T11:17:00.532Z,7.50
2023-04-08T11:22:07.759Z,7.00
2023-04-08T11:27:11.118Z,7.20
2023-04-08T11:32:14.369Z,7.60
2023-04-08T11:37:18.842Z,7.13
2023-04-08T11:42:28.826Z,7.93
2023-04-08T11:47:33.512Z,7.47
2023-04-08T11:52:45.946Z,7.60
2023-04-08T11:57:49.330Z,8.40
2023-04-08T12:02:53.528Z,7.40
2023-04-08T12:07:58.169Z,8.23
2023-04-08T12:13:01.269Z,7.10
2023-04-08T12:18:04.487Z,7.97
2023-04-08T12:23:09.162Z,7.83
2023-04-08T12:28:12.214Z,8.27
2023-04-08T12:33:15.668Z,8.10
2023-04-08T12:38:20.217Z,7.83
2023-04-08T12:43:23.639Z,8.50
2023-04-08T12:48:26.717Z,7.90
2023-04-08T12:53:31.162Z,7.37
2023-04-08T12:58:34.225Z,7.40
2023-04-08T13:03:37.534Z,6.83
2023-04-08T13:08:42.059Z,6.93
2023-04-08T13:13:46.479Z,6.83
2023-04-08T13:18:49.894Z,6.67
2023-04-08T13:23:54.527Z,7.00
2023-04-08T13:28:58.435Z,6.30
2023-04-08T13:34:01.829Z,6.13
2023-04-08T13:39:06.273Z,5.53
2023-04-08T13:44:09.326Z,6.10
2023-04-08T13:49:12.417Z,5.87
2023-04-08T13:54:16.884Z,5.80
2023-04-08T13:59:19.992Z,5.67
2023-04-08T14:04:23.165Z,5.47
2023-04-08T14:09:27.677Z,5.90
2023-04-08T14:14:30.766Z,5.77
2023-04-08T14:19:33.950Z,5.57
2023-04-08T14:24:38.406Z,6.07
2023-04-08T14:29:41.595Z,6.33
2023-04-08T14:34:44.724Z,6.10
2023-04-08T14:39:49.214Z,5.57
2023-04-08T14:44:52.316Z,6.27
2023-04-08T14:49:55.401Z,5.87
2023-04-08T14:55:01.963Z,5.93
2023-04-08T15:00:05.601Z,5.73
2023-04-08T15:05:09.356Z,6.53
2023-04-08T15:10:14.050Z,6.20
2023-04-08T15:15:17.170Z,6.27
2023-04-08T15:20:20.357Z,6.53
2023-04-08T15:25:24.898Z,6.43
2023-04-08T15:30:28.002Z,6.70
2023-04-08T15:35:31.363Z,6.97
2023-04-08T15:40:36.050Z,6.00
2023-04-08T15:45:44.626Z,5.60
2023-04-08T15:50:47.773Z,4.67
2023-04-08T15:55:52.231Z,5.23
2023-04-08T16:00:55.823Z,4.80
2023-04-08T16:05:58.918Z,5.00
2023-04-08T16:11:05.313Z,4.80
2023-04-08T16:16:08.858Z,4.63
2023-04-08T16:21:12.475Z,4.90
2023-04-08T16:26:17.168Z,5.20
2023-04-08T16:31:20.421Z,6.03
2023-04-08T16:36:23.531Z,5.83
2023-04-08T16:41:27.999Z,5.70
2023-04-08T16:46:31.070Z,6.60
2023-04-08T16:51:34.414Z,6.47
2023-04-08T16:56:44.302Z,5.50
2023-04-08T17:01:47.579Z,4.87
2023-04-08T17:06:51.113Z,4.20
2023-04-08T17:11:56.700Z,4.30
2023-04-08T17:16:59.825Z,3.70
2023-04-08T17:22:02.905Z,2.60
2023-04-08T17:27:07.348Z,2.30
2023-04-08T17:32:10.858Z,2.37
2023-04-08T17:37:13.951Z,2.20
2023-04-08T17:42:22.364Z,2.03
2023-04-08T17:47:25.482Z,2.17
2023-04-08T17:52:28.564Z,2.53
2023-04-08T17:57:33.026Z,2.63
2023-04-08T18:02:37.234Z,4.43
2023-04-08T18:07:40.661Z,3.20
2023-04-08T18:12:45.306Z,3.10
2023-04-08T18:17:48.475Z,3.30
2023-04-08T18:22:51.567Z,3.63
2023-04-08T18:27:56.038Z,3.07
2023-04-08T18:32:59.193Z,3.13
2023-04-08T18:38:02.303Z,2.97
2023-04-08T18:43:06.744Z,3.40
2023-04-08T18:48:09.942Z,3.27
2023-04-08T18:53:13.598Z,4.50
2023-04-08T18:58:18.135Z,5.57
2023-04-08T19:03:21.559Z,3.57
2023-04-08T19:08:24.672Z,8.97
2023-04-08T19:13:29.175Z,5.17
2023-04-08T19:18:32.313Z,4.70
2023-04-08T19:23:35.378Z,4.33
2023-04-08T19:28:39.844Z,4.50
2023-04-08T19:33:43.128Z,4.67
2023-04-08T19:38:46.269Z,4.83
2023-04-08T19:43:50.911Z,4.37
2023-04-08T19:48:56.243Z,4.90
2023-04-08T19:53:59.389Z,5.10
2023-04-08T19:59:03.877Z,4.73
2023-04-08T20:04:07.054Z,4.97
2023-04-08T20:09:10.230Z,5.53
2023-04-08T20:14:15.059Z,5.53
2023-04-08T20:19:18.121Z,5.67
2023-04-08T20:24:21.661Z,5.90
2023-04-08T20:29:26.178Z,4.40
2023-04-08T20:34:29.264Z,5.70
2023-04-08T20:39:32.417Z,4.77
2023-04-08T20:44:37.393Z,4.73
2023-04-08T20:49:42.193Z,4.80
2023-04-08T20:54:45.399Z,7.90
2023-04-08T20:59:49.871Z,7.00
2023-04-08T21:04:52.970Z,13.57
2023-04-08T21:09:56.052Z,16.53
2023-04-08T21:15:00.487Z,15.13
2023-04-08T21:20:04.392Z,9.83
2023-04-08T21:25:08.251Z,7.10
2023-04-08T21:30:13.329Z,5.30
2023-04-08T21:35:16.798Z,5.40
2023-04-08T21:40:19.924Z,4.97
2023-04-08T21:45:24.827Z,4.90
2023-04-08T21:50:28.056Z,4.40
2023-04-08T21:55:31.238Z,4.10
2023-04-08T22:00:35.690Z,5.27
2023-04-08T22:05:38.740Z,4.63
2023-04-08T22:10:42.056Z,5.43
2023-04-08T22:15:46.639Z,5.40
2023-04-08T22:20:49.784Z,4.40
2023-04-08T22:25:52.853Z,4.40
2023-04-08T22:30:57.308Z,5.30
2023-04-08T22:36:00.493Z,5.23
2023-04-08T22:41:03.625Z,5.40
2023-04-08T22:46:08.170Z,4.87
2023-04-08T22:51:11.386Z,5.03
2023-04-08T22:56:14.532Z,4.63
2023-04-08T23:01:20.857Z,4.70
2023-04-08T23:06:24.011Z,4.90
2023-04-08T23:11:27.292Z,4.77
2023-04-08T23:16:31.831Z,4.37
2023-04-08T23:21:34.933Z,3.30
2023-04-08T23:26:38.033Z,3.53
2023-04-08T23:31:42.775Z,4.60
2023-04-08T23:36:46.283Z,3.20
2023-04-08T23:41:49.364Z,3.73
2023-04-08T23:46:53.860Z,4.53
2023-04-08T23:51:56.947Z,4.33
2023-04-08T23:57:00.061Z,5.33
